This is the latest recevied weather packets stored in our database for station/object VK2BLR. If no packets are shown the sender has not sent any weather packets the latest 10 day(s).
| Time | Temp. | Humidity | Pressure | Rain* | Wind** | Luminosity | Snow |
|---|---|---|---|---|---|---|---|
| 1787833290 | 8.89° C | 76% | 1025.3 hPa | 0 mm | - | - | - |
| 1787832390 | 8.89° C | 76% | 1025.4 hPa | 0 mm | - | - | - |
| 1787831492 | 9.44° C | 76% | 1025.3 hPa | 0 mm | - | - | - |
| 1787830592 | 9.44° C | 75% | 1025.7 hPa | 0 mm | - | - | - |
| 1787829691 | 10° C | 75% | 1025.6 hPa | 0 mm | - | - | - |
| 1787828790 | 10° C | 74% | 1025.5 hPa | 0 mm | - | - | - |
| 1787827892 | 10.56° C | 74% | 1025.6 hPa | 0 mm | - | - | - |
| 1787826992 | 10.56° C | 73% | 1025.5 hPa | 0 mm | - | - | - |
| 1787826091 | 11.11° C | 73% | 1025.4 hPa | 0 mm | - | - | - |
| 1787825190 | 11.11° C | 72% | 1025.5 hPa | 0 mm | - | - | - |
| 1787824292 | 11.67° C | 72% | 1025.3 hPa | 0 mm | - | - | - |
| 1787823392 | 11.67° C | 71% | 1025.3 hPa | 0 mm | - | - | - |
| 1787822492 | 12.22° C | 70% | 1025.2 hPa | 0 mm | - | - | - |
| 1787821592 | 12.78° C | 66% | 1025.2 hPa | 0 mm | - | - | - |
| 1787820691 | 13.33° C | 64% | 1025 hPa | 0 mm | - | - | - |
| 1787819791 | 13.33° C | 63% | 1025 hPa | 0 mm | - | - | - |
| 1787818891 | 13.89° C | 62% | 1024.9 hPa | 0 mm | - | - | - |
| 1787817992 | 14.44° C | 62% | 1024.6 hPa | 0 mm | - | - | - |
| 1787817090 | 14.44° C | 61% | 1024.7 hPa | 0 mm | - | - | - |
| 1787816190 | 15° C | 61% | 1024.7 hPa | 0 mm | - | - | - |
| 1787815292 | 15° C | 61% | 1024.6 hPa | 0 mm | - | - | - |
| 1787814392 | 15.56° C | 60% | 1024.6 hPa | 0 mm | - | - | - |
| 1787813490 | 15.56° C | 59% | 1024.8 hPa | 0 mm | - | - | - |
| 1787812590 | 16.11° C | 57% | 1024.7 hPa | 0 mm | - | - | - |
| 1787811692 | 16.67° C | 57% | 1024.7 hPa | 0 mm | - | - | - |
* Rain latest hour (hover to see other rain measurements)
** Current wind speed in m/s (hover to see current wind gust speed)